createdAt,value
2023-05-20T00:03:00.544Z,36.11
2023-05-20T00:08:06.322Z,35.89
2023-05-20T00:13:10.040Z,35.33
2023-05-20T00:18:14.596Z,36.08
2023-05-20T00:23:22.923Z,35.76
2023-05-20T00:28:26.544Z,35.53
2023-05-20T00:33:30.199Z,35.55
2023-05-20T00:38:35.766Z,36.16
2023-05-20T00:43:39.447Z,36.79
2023-05-20T00:48:44.973Z,38.47
2023-05-20T00:53:50.589Z,39.58
2023-05-20T00:58:54.397Z,40.70
2023-05-20T01:03:58.126Z,41.26
2023-05-20T01:09:03.487Z,42.63
2023-05-20T01:14:09.741Z,43.75
2023-05-20T01:19:23.038Z,44.44
2023-05-20T01:24:28.485Z,44.88
2023-05-20T01:29:32.184Z,44.40
2023-05-20T01:34:37.918Z,44.72
2023-05-20T01:39:46.231Z,44.74
2023-05-20T01:44:50.044Z,44.59
2023-05-20T01:49:53.687Z,44.53
2023-05-20T01:54:59.164Z,45.28
2023-05-20T02:00:02.848Z,46.43
2023-05-20T02:05:07.087Z,46.83
2023-05-20T02:10:12.903Z,47.59
2023-05-20T02:15:16.709Z,47.80
2023-05-20T02:20:20.405Z,48.84
2023-05-20T02:25:25.740Z,50.80
2023-05-20T02:30:28.634Z,52.48
2023-05-20T02:35:32.435Z,51.54
2023-05-20T02:40:37.949Z,52.20
2023-05-20T02:45:42.235Z,52.18
2023-05-20T02:50:47.334Z,53.30
2023-05-20T02:55:52.720Z,54.39
2023-05-20T03:00:55.693Z,55.43
2023-05-20T03:05:59.409Z,55.48
2023-05-20T03:11:05.526Z,56.20
2023-05-20T03:16:10.406Z,56.34
2023-05-20T03:21:14.102Z,56.42
2023-05-20T03:26:19.531Z,57.37
2023-05-20T03:31:23.206Z,57.61
2023-05-20T03:36:27.518Z,57.38
2023-05-20T03:41:33.258Z,58.55
2023-05-20T03:46:36.904Z,58.25
2023-05-20T03:51:40.601Z,58.21
2023-05-20T03:56:45.915Z,59.04
2023-05-20T04:01:49.610Z,59.04
2023-05-20T04:06:53.258Z,60.14
2023-05-20T04:11:58.620Z,60.21
2023-05-20T04:17:03.142Z,60.02
2023-05-20T04:22:07.080Z,61.14
2023-05-20T04:27:12.365Z,61.72
2023-05-20T04:32:18.450Z,61.77
2023-05-20T04:37:22.242Z,60.57
2023-05-20T04:42:28.646Z,60.42
2023-05-20T04:47:32.393Z,59.84
2023-05-20T04:52:36.084Z,60.68
2023-05-20T04:57:41.565Z,60.71
2023-05-20T05:02:45.978Z,60.82
2023-05-20T05:07:49.705Z,61.31
2023-05-20T05:12:55.019Z,62.59
2023-05-20T05:17:59.357Z,63.99
2023-05-20T05:23:03.018Z,64.62
2023-05-20T05:28:08.363Z,65.12
2023-05-20T05:33:12.128Z,65.14
2023-05-20T05:38:15.862Z,66.02
2023-05-20T05:43:21.228Z,67.27
2023-05-20T05:48:24.942Z,66.72
2023-05-20T05:53:28.848Z,66.52
2023-05-20T05:58:34.189Z,67.55
2023-05-20T06:03:38.065Z,67.29
2023-05-20T06:08:41.772Z,67.34
2023-05-20T06:13:48.057Z,69.68
2023-05-20T06:18:51.750Z,68.57
2023-05-20T06:23:55.404Z,68.74
2023-05-20T06:29:00.738Z,69.24
2023-05-20T06:34:04.413Z,68.85
2023-05-20T06:39:08.084Z,69.17
2023-05-20T06:44:13.386Z,69.92
2023-05-20T06:49:17.070Z,69.68
2023-05-20T06:54:20.731Z,69.96
2023-05-20T06:59:26.217Z,70.59
2023-05-20T07:04:29.978Z,71.18
2023-05-20T07:09:33.633Z,71.96
2023-05-20T07:14:40.002Z,74.13
2023-05-20T07:19:43.652Z,73.35
2023-05-20T07:24:49.447Z,72.40
2023-05-20T07:29:55.504Z,72.17
2023-05-20T07:34:59.155Z,71.86
2023-05-20T07:40:03.099Z,72.54
2023-05-20T07:45:09.698Z,73.06
2023-05-20T07:50:13.426Z,72.75
2023-05-20T07:55:17.197Z,73.90
2023-05-20T08:00:23.089Z,75.38
2023-05-20T08:05:26.071Z,78.37
2023-05-20T08:10:29.772Z,74.86
2023-05-20T08:15:36.457Z,74.32
2023-05-20T08:20:40.179Z,75.24
2023-05-20T08:25:43.869Z,75.18
2023-05-20T08:30:49.247Z,75.45
2023-05-20T08:35:52.997Z,75.08
2023-05-20T08:40:58.009Z,75.04
2023-05-20T08:46:03.948Z,75.28
2023-05-20T08:51:10.941Z,74.76
2023-05-20T08:56:14.879Z,74.06
2023-05-20T09:01:20.381Z,74.59
2023-05-20T09:06:24.080Z,74.78
2023-05-20T09:11:27.807Z,75.28
2023-05-20T09:16:33.263Z,76.74
2023-05-20T09:21:37.027Z,77.73
2023-05-20T09:26:40.682Z,78.13
2023-05-20T09:31:46.093Z,78.30
2023-05-20T09:36:52.123Z,78.90
2023-05-20T09:42:03.747Z,78.63
2023-05-20T09:47:10.512Z,78.94
2023-05-20T09:52:16.091Z,78.70
2023-05-20T09:57:19.928Z,78.62
2023-05-20T10:02:25.345Z,79.38
2023-05-20T10:08:09.748Z,80.53
2023-05-20T10:13:24.531Z,80.25
2023-05-20T10:18:43.284Z,80.10
2023-05-20T10:23:47.440Z,80.12
2023-05-20T10:28:51.208Z,79.75
2023-05-20T10:33:59.692Z,79.71
2023-05-20T10:39:04.919Z,78.79
2023-05-20T10:44:08.605Z,79.02
2023-05-20T10:49:25.239Z,79.68
2023-05-20T10:54:36.056Z,78.76
2023-05-20T10:59:39.898Z,78.52
2023-05-20T11:04:45.939Z,79.31
2023-05-20T11:09:50.655Z,79.54
2023-05-20T11:14:54.678Z,78.58
2023-05-20T11:20:00.194Z,79.45
2023-05-20T11:25:07.139Z,80.39
2023-05-20T11:30:12.673Z,80.72
2023-05-20T11:35:25.823Z,82.23
2023-05-20T11:40:38.947Z,80.93
2023-05-20T11:45:47.505Z,81.06
2023-05-20T11:50:55.609Z,80.98
2023-05-20T11:56:00.873Z,80.38
2023-05-20T12:01:13.998Z,79.86
2023-05-20T12:06:26.887Z,81.36
2023-05-20T12:11:30.547Z,80.85
2023-05-20T12:16:35.436Z,80.81
2023-05-20T12:21:40.810Z,81.40
2023-05-20T12:26:44.508Z,80.43
2023-05-20T12:31:48.566Z,80.88
2023-05-20T12:36:53.999Z,81.53
2023-05-20T12:41:57.702Z,81.46
2023-05-20T12:47:01.636Z,80.99
2023-05-20T12:52:11.894Z,81.33
2023-05-20T12:57:23.132Z,81.86
2023-05-20T13:02:26.857Z,81.80
2023-05-20T13:07:32.298Z,81.98
2023-05-20T13:12:36.057Z,82.77
2023-05-20T13:17:39.858Z,82.20
2023-05-20T13:22:45.161Z,82.02
2023-05-20T13:27:48.860Z,82.41
2023-05-20T13:32:52.971Z,82.38
2023-05-20T13:37:59.291Z,83.18
2023-05-20T13:43:02.950Z,83.03
2023-05-20T13:48:07.082Z,82.97
2023-05-20T13:53:12.430Z,83.68
2023-05-20T13:58:16.135Z,83.15
2023-05-20T14:03:19.986Z,82.55
2023-05-20T14:08:25.421Z,82.50
2023-05-20T14:13:29.085Z,81.94
2023-05-20T14:18:32.775Z,80.85
2023-05-20T14:23:38.230Z,79.96
2023-05-20T14:28:41.859Z,78.93
2023-05-20T14:33:45.526Z,77.79
2023-05-20T14:38:50.895Z,76.09
2023-05-20T14:43:54.535Z,74.33
2023-05-20T14:48:58.864Z,72.93
2023-05-20T14:54:04.231Z,72.40
2023-05-20T14:59:08.063Z,73.09
2023-05-20T15:04:11.838Z,72.69
2023-05-20T15:09:17.225Z,71.19
2023-05-20T15:14:20.970Z,72.09
2023-05-20T15:19:24.678Z,71.76
2023-05-20T15:24:30.137Z,71.64
2023-05-20T15:29:33.811Z,70.42
2023-05-20T15:34:37.507Z,68.96
2023-05-20T15:39:42.818Z,65.61
2023-05-20T15:44:46.759Z,65.29
2023-05-20T15:49:50.448Z,62.78
2023-05-20T15:54:55.957Z,60.47
2023-05-20T15:59:59.544Z,57.81
2023-05-20T16:05:03.210Z,59.20
2023-05-20T16:10:09.930Z,58.42
2023-05-20T16:15:14.038Z,56.18
2023-05-20T16:20:17.662Z,56.82
2023-05-20T16:25:23.053Z,56.17
2023-05-20T16:30:26.855Z,55.89
2023-05-20T16:35:30.507Z,55.24
2023-05-20T16:40:36.814Z,53.65
2023-05-20T16:45:40.503Z,51.33
2023-05-20T16:50:44.228Z,49.89
2023-05-20T16:55:49.573Z,49.69
2023-05-20T17:00:52.723Z,48.68
2023-05-20T17:05:56.573Z,50.31
2023-05-20T17:11:03.581Z,49.03
2023-05-20T17:16:09.881Z,47.15
2023-05-20T17:21:15.534Z,46.05
2023-05-20T17:26:21.066Z,46.17
2023-05-20T17:31:24.683Z,45.55
2023-05-20T17:36:29.292Z,44.93
2023-05-20T17:41:34.574Z,44.35
2023-05-20T17:46:38.394Z,44.48
2023-05-20T17:51:42.144Z,44.48
2023-05-20T17:56:48.920Z,42.97
2023-05-20T18:01:52.815Z,43.94
2023-05-20T18:06:56.570Z,46.98
2023-05-20T18:12:02.941Z,46.90
2023-05-20T18:17:06.781Z,46.67
2023-05-20T18:22:10.442Z,45.94
2023-05-20T18:27:15.749Z,47.00
2023-05-20T18:32:19.604Z,46.63
2023-05-20T18:37:23.264Z,47.50
2023-05-20T18:42:28.735Z,47.95
2023-05-20T18:47:32.933Z,48.37
2023-05-20T18:52:36.679Z,48.20
2023-05-20T18:57:41.998Z,47.37
2023-05-20T19:02:45.979Z,47.50
2023-05-20T19:07:49.649Z,47.04
2023-05-20T19:12:54.947Z,46.38
2023-05-20T19:17:58.704Z,46.43
2023-05-20T19:23:02.390Z,47.52
2023-05-20T19:28:07.983Z,47.63
2023-05-20T19:33:11.636Z,47.22
2023-05-20T19:38:15.449Z,45.65
2023-05-20T19:43:20.753Z,44.26
2023-05-20T19:48:24.393Z,45.93
2023-05-20T19:53:28.044Z,47.51
2023-05-20T19:58:34.294Z,46.14
2023-05-20T20:03:37.966Z,46.60
2023-05-20T20:08:41.697Z,46.18
2023-05-20T20:13:47.031Z,45.45
2023-05-20T20:18:50.686Z,46.46
2023-05-20T20:23:54.380Z,46.10
2023-05-20T20:29:00.608Z,44.45
2023-05-20T20:34:04.244Z,43.97
2023-05-20T20:39:07.964Z,44.92
2023-05-20T20:44:13.419Z,45.19
2023-05-20T20:49:17.167Z,44.78
2023-05-20T20:54:20.886Z,46.34
2023-05-20T20:59:26.402Z,45.98
2023-05-20T21:04:30.395Z,45.28
2023-05-20T21:09:34.091Z,43.55
2023-05-20T21:14:39.424Z,44.83
2023-05-20T21:19:43.097Z,44.28
2023-05-20T21:24:46.754Z,44.21
2023-05-20T21:29:52.092Z,44.11
2023-05-20T21:34:56.856Z,44.03
2023-05-20T21:40:02.045Z,44.04
2023-05-20T21:45:08.738Z,44.04
2023-05-20T21:50:13.268Z,44.78
2023-05-20T21:55:17.072Z,44.94
2023-05-20T22:00:22.405Z,44.44
2023-05-20T22:05:28.644Z,44.96
2023-05-20T22:10:32.330Z,45.63
2023-05-20T22:15:37.872Z,45.35
2023-05-20T22:20:41.745Z,45.57
2023-05-20T22:25:45.519Z,45.74
2023-05-20T22:30:50.975Z,45.83
2023-05-20T22:35:54.939Z,45.51
2023-05-20T22:40:58.680Z,45.81
2023-05-20T22:46:04.251Z,45.89
2023-05-20T22:51:08.088Z,45.86
2023-05-20T22:56:11.717Z,45.78
2023-05-20T23:01:17.111Z,46.47
2023-05-20T23:06:20.811Z,45.55
2023-05-20T23:11:24.498Z,46.63
2023-05-20T23:16:29.918Z,46.59
2023-05-20T23:21:33.691Z,46.71
2023-05-20T23:26:37.349Z,47.41
2023-05-20T23:31:42.690Z,48.32
2023-05-20T23:36:46.330Z,48.47
2023-05-20T23:41:49.919Z,48.61
2023-05-20T23:46:55.263Z,48.39
2023-05-20T23:51:58.940Z,48.19
2023-05-20T23:57:02.675Z,48.93
